createdAt,value
2023-04-05T00:02:29.180Z,99.90
2023-04-05T00:04:57.641Z,99.90
2023-04-05T00:07:27.716Z,99.90
2023-04-05T00:09:58.985Z,99.90
2023-04-05T00:12:28.669Z,99.90
2023-04-05T00:14:58.344Z,99.90
2023-04-05T00:17:25.649Z,99.90
2023-04-05T00:19:56.445Z,99.90
2023-04-05T00:22:25.678Z,99.90
2023-04-05T00:24:52.776Z,99.90
2023-04-05T00:27:21.605Z,99.90
2023-04-05T00:29:48.626Z,99.90
2023-04-05T00:32:15.421Z,99.90
2023-04-05T00:34:45.710Z,99.90
2023-04-05T00:37:12.375Z,99.90
2023-04-05T00:39:41.679Z,99.90
2023-04-05T00:42:08.505Z,99.90
2023-04-05T00:44:35.762Z,99.90
2023-04-05T00:47:06.788Z,99.90
2023-04-05T00:49:37.002Z,99.90
2023-04-05T00:52:04.012Z,99.90
2023-04-05T00:54:40.718Z,99.90
2023-04-05T01:03:13.027Z,99.90
2023-04-05T01:05:48.834Z,99.90
2023-04-05T01:08:24.839Z,99.90
2023-04-05T01:10:58.165Z,99.90
2023-04-05T01:13:25.386Z,99.90
2023-04-05T01:15:54.743Z,99.90
2023-04-05T01:18:23.745Z,99.90
2023-04-05T01:21:29.258Z,99.90
2023-04-05T01:24:46.021Z,99.90
2023-04-05T01:27:45.745Z,99.90
2023-04-05T01:30:19.888Z,99.90
2023-04-05T01:32:56.482Z,99.90
2023-04-05T01:35:46.833Z,99.90
2023-04-05T01:38:21.957Z,99.90
2023-04-05T01:40:48.907Z,99.90
2023-04-05T01:43:17.754Z,99.90
2023-04-05T01:45:47.831Z,99.90
2023-04-05T01:48:17.742Z,99.90
2023-04-05T01:50:44.973Z,99.90
2023-04-05T01:53:38.202Z,99.90
2023-04-05T01:56:04.986Z,99.90
2023-04-05T01:58:36.844Z,99.90
2023-04-05T02:01:03.890Z,99.90
2023-04-05T02:03:30.838Z,99.90
2023-04-05T02:05:58.177Z,99.90
2023-04-05T02:08:25.144Z,99.90
2023-04-05T02:10:54.895Z,99.90
2023-04-05T02:13:27.681Z,99.90
2023-04-05T02:15:56.447Z,99.90
2023-04-05T02:18:31.383Z,99.90
2023-04-05T02:23:57.459Z,99.90
2023-04-05T02:26:27.864Z,99.90
2023-04-05T02:28:54.801Z,99.90
2023-04-05T02:31:23.979Z,99.90
2023-04-05T02:33:54.460Z,99.90
2023-04-05T02:36:27.575Z,99.90
2023-04-05T02:38:54.557Z,99.90
2023-04-05T02:41:24.379Z,99.90
2023-04-05T02:43:51.039Z,99.90
2023-04-05T02:46:26.399Z,99.90
2023-04-05T02:48:53.340Z,99.90
2023-04-05T02:51:28.930Z,99.90
2023-04-05T02:53:56.027Z,99.90
2023-04-05T02:56:22.640Z,99.90
2023-04-05T02:58:52.900Z,99.90
2023-04-05T03:01:27.242Z,99.90
2023-04-05T03:03:56.447Z,99.90
2023-04-05T03:06:23.231Z,99.90
2023-04-05T03:08:55.259Z,99.90
2023-04-05T03:11:24.568Z,99.90
2023-04-05T03:13:55.913Z,99.90
2023-04-05T03:16:42.782Z,99.90
2023-04-05T03:19:25.382Z,99.90
2023-04-05T03:22:00.115Z,99.90
2023-04-05T03:24:32.053Z,99.90
2023-04-05T03:27:06.484Z,99.90
2023-04-05T03:30:04.590Z,99.90
2023-04-05T03:32:39.213Z,99.90
2023-04-05T03:35:18.476Z,99.90
2023-04-05T03:37:49.875Z,99.90
2023-04-05T03:40:18.917Z,99.90
2023-04-05T03:42:49.472Z,99.90
2023-04-05T03:45:21.132Z,99.90
2023-04-05T03:47:51.539Z,99.90
2023-04-05T03:50:18.243Z,99.90
2023-04-05T03:52:51.033Z,99.90
2023-04-05T03:55:18.924Z,99.90
2023-04-05T03:57:47.096Z,99.90
2023-04-05T04:00:32.882Z,99.90
2023-04-05T04:03:28.443Z,99.90
2023-04-05T04:05:56.931Z,99.90
2023-04-05T04:08:34.630Z,99.90
2023-04-05T04:11:20.250Z,99.90
2023-04-05T04:19:58.439Z,99.90
2023-04-05T04:22:51.050Z,99.90
2023-04-05T04:25:30.589Z,99.90
2023-04-05T04:28:24.449Z,99.90
2023-04-05T04:31:15.720Z,99.90
2023-04-05T04:34:09.628Z,99.90
2023-04-05T04:37:00.273Z,99.90
2023-04-05T04:40:03.501Z,99.90
2023-04-05T04:42:46.359Z,99.90
2023-04-05T04:45:26.442Z,99.90
2023-04-05T04:48:19.197Z,99.90
2023-04-05T04:51:20.838Z,99.90
2023-04-05T04:54:20.765Z,99.90
2023-04-05T04:56:48.049Z,99.90
2023-04-05T04:59:20.738Z,99.90
2023-04-05T05:01:50.284Z,99.90
2023-04-05T05:04:17.817Z,99.90
2023-04-05T05:06:49.790Z,99.90
2023-04-05T05:09:17.101Z,99.90
2023-04-05T05:11:49.504Z,99.90
2023-04-05T05:14:19.804Z,99.90
2023-04-05T05:16:48.121Z,99.90
2023-04-05T05:19:15.278Z,99.90
2023-04-05T05:21:53.869Z,99.90
2023-04-05T05:24:21.456Z,99.90
2023-04-05T05:26:48.696Z,99.90
2023-04-05T05:29:25.991Z,99.90
2023-04-05T05:31:53.204Z,99.90
2023-04-05T05:34:27.540Z,99.90
2023-04-05T05:37:11.907Z,99.90
2023-04-05T05:39:39.022Z,99.90
2023-04-05T05:42:08.608Z,99.90
2023-04-05T05:44:49.244Z,99.90
2023-04-05T05:47:20.514Z,99.90
2023-04-05T05:49:51.803Z,99.90
2023-04-05T05:52:18.997Z,99.90
2023-04-05T05:55:07.392Z,99.90
2023-04-05T05:57:36.594Z,99.90
2023-04-05T06:00:08.978Z,99.90
2023-04-05T06:02:39.404Z,99.90
2023-04-05T06:05:10.139Z,99.90
2023-04-05T06:07:37.926Z,99.90
2023-04-05T06:10:06.805Z,99.90
2023-04-05T06:12:35.391Z,99.90
2023-04-05T06:15:08.380Z,99.90
2023-04-05T06:17:42.057Z,99.90
2023-04-05T06:20:11.159Z,99.90
2023-04-05T06:22:52.237Z,99.90
2023-04-05T06:25:19.447Z,99.90
2023-04-05T06:27:47.060Z,99.90
2023-04-05T06:30:15.056Z,99.90
2023-04-05T06:32:44.801Z,99.90
2023-04-05T06:35:15.002Z,99.90
2023-04-05T06:37:54.701Z,99.90
2023-04-05T06:40:46.143Z,99.90
2023-04-05T06:43:13.667Z,99.90
2023-04-05T06:45:50.481Z,99.90
2023-04-05T06:48:28.901Z,99.90
2023-04-05T06:51:03.953Z,99.90
2023-04-05T06:53:36.301Z,99.90
2023-04-05T06:56:17.048Z,99.90
2023-04-05T06:58:44.680Z,99.90
2023-04-05T07:01:12.220Z,99.90
2023-04-05T07:03:43.485Z,99.90
2023-04-05T07:06:11.998Z,99.90
2023-04-05T07:09:04.854Z,99.90
2023-04-05T07:14:37.722Z,99.90
2023-04-05T07:17:08.172Z,99.90
2023-04-05T07:25:41.980Z,99.90
2023-04-05T07:28:17.363Z,99.90
2023-04-05T07:30:46.588Z,99.90
2023-04-05T07:33:15.995Z,99.90
2023-04-05T07:35:54.110Z,99.90
2023-04-05T07:38:25.423Z,99.90
2023-04-05T07:40:55.683Z,99.90
2023-04-05T07:43:24.811Z,99.90
2023-04-05T07:46:00.504Z,99.90
2023-04-05T07:48:27.256Z,99.90
2023-04-05T07:50:57.389Z,99.90
2023-04-05T07:53:24.072Z,99.90
2023-04-05T07:55:52.793Z,99.90
2023-04-05T07:58:19.559Z,99.90
2023-04-05T08:00:46.310Z,99.90
2023-04-05T08:03:15.820Z,99.90
2023-04-05T08:05:43.340Z,99.90
2023-04-05T08:08:19.816Z,99.90
2023-04-05T08:10:46.495Z,99.90
2023-04-05T08:13:15.616Z,99.90
2023-04-05T08:15:46.542Z,99.90
2023-04-05T08:18:13.372Z,99.90
2023-04-05T08:20:40.800Z,99.90
2023-04-05T08:23:07.757Z,99.90
2023-04-05T08:25:36.197Z,99.90
2023-04-05T08:28:15.392Z,99.90
2023-04-05T08:30:46.771Z,99.90
2023-04-05T08:33:14.089Z,99.90
2023-04-05T08:38:27.036Z,99.90
2023-04-05T08:41:28.082Z,99.90
2023-04-05T08:44:13.982Z,99.90
2023-04-05T08:46:47.473Z,99.90
2023-04-05T08:49:20.895Z,99.90
2023-04-05T08:52:02.242Z,99.90
2023-04-05T08:54:56.259Z,99.90
2023-04-05T08:57:48.500Z,99.90
2023-04-05T09:00:21.428Z,99.90
2023-04-05T09:02:58.116Z,99.90
2023-04-05T09:05:52.776Z,99.90
2023-04-05T09:08:29.061Z,99.90
2023-04-05T09:10:58.963Z,99.90
2023-04-05T09:13:26.849Z,99.90
2023-04-05T09:16:16.576Z,99.90
2023-04-05T09:19:06.658Z,99.20
2023-04-05T09:22:04.417Z,97.70
2023-04-05T09:24:41.713Z,99.00
2023-04-05T09:27:15.649Z,97.10
2023-04-05T09:30:13.661Z,94.90
2023-04-05T09:33:18.625Z,94.10
2023-04-05T09:35:51.780Z,92.10
2023-04-05T09:38:43.796Z,91.20
2023-04-05T09:41:17.890Z,90.00
2023-04-05T09:47:17.347Z,90.20
2023-04-05T09:50:06.284Z,86.60
2023-04-05T09:55:35.940Z,81.30
2023-04-05T09:58:03.363Z,79.40
2023-04-05T10:00:36.890Z,78.00
2023-04-05T10:03:05.063Z,78.20
2023-04-05T10:08:38.360Z,77.00
2023-04-05T10:20:14.312Z,72.00
2023-04-05T10:25:58.611Z,67.90
2023-04-05T10:31:37.189Z,69.20
2023-04-05T11:08:42.660Z,61.40
2023-04-05T11:58:43.374Z,56.50
2023-04-05T12:19:57.875Z,54.20
2023-04-05T12:31:45.067Z,58.20
2023-04-05T12:34:39.268Z,56.50
2023-04-05T12:37:06.059Z,56.50
2023-04-05T12:39:35.704Z,57.50
2023-04-05T12:42:02.600Z,58.60
2023-04-05T12:50:27.427Z,53.40
2023-04-05T12:55:59.254Z,52.30
2023-04-05T12:58:40.158Z,53.60
2023-04-05T13:01:10.119Z,53.50
2023-04-05T13:03:37.005Z,50.80
2023-04-05T13:11:52.367Z,54.90
2023-04-05T13:17:23.978Z,54.20
2023-04-05T13:19:50.698Z,54.70
2023-04-05T13:25:44.820Z,53.50
2023-04-05T13:28:19.186Z,51.80
2023-04-05T13:30:48.249Z,52.00
2023-04-05T13:33:16.720Z,50.20
2023-04-05T13:35:43.761Z,49.70
2023-04-05T13:38:17.892Z,50.80
2023-04-05T13:40:46.697Z,50.80
2023-04-05T13:43:15.699Z,50.10
2023-04-05T13:46:07.490Z,52.20
2023-04-05T13:48:34.224Z,52.10
2023-04-05T13:51:01.029Z,51.30
2023-04-05T13:53:33.862Z,50.40
2023-04-05T13:56:05.896Z,50.50
2023-04-05T14:01:22.220Z,49.60
2023-04-05T14:06:48.701Z,49.00
2023-04-05T14:09:16.642Z,47.80
2023-04-05T14:11:44.589Z,50.60
2023-04-05T14:14:12.535Z,49.10
2023-04-05T14:16:40.631Z,48.90
2023-04-05T14:19:10.552Z,48.70
2023-04-05T14:21:37.312Z,47.90
2023-04-05T14:24:10.182Z,46.10
2023-04-05T14:26:49.093Z,47.00
2023-04-05T14:29:19.467Z,47.60
2023-04-05T14:31:46.591Z,45.60
2023-04-05T14:34:16.173Z,45.90
2023-04-05T14:36:50.744Z,46.30
2023-04-05T14:39:23.513Z,46.80
2023-04-05T14:41:57.132Z,46.60
2023-04-05T14:44:28.122Z,46.10
2023-04-05T14:46:57.447Z,48.40
2023-04-05T14:49:32.923Z,49.00
2023-04-05T14:52:08.274Z,49.10
2023-04-05T14:54:37.887Z,48.20
2023-04-05T14:57:09.050Z,46.60
2023-04-05T14:59:37.843Z,46.60
2023-04-05T15:02:09.183Z,46.60
2023-04-05T15:04:38.234Z,48.60
2023-04-05T15:07:10.868Z,48.00
2023-04-05T15:10:29.600Z,48.00
2023-04-05T15:13:01.625Z,46.90
2023-04-05T15:15:30.703Z,48.60
2023-04-05T15:18:03.186Z,49.50
2023-04-05T15:21:04.103Z,48.40
2023-04-05T15:23:55.639Z,47.80
2023-04-05T15:26:25.596Z,49.90
2023-04-05T15:28:54.753Z,47.40
2023-04-05T15:31:26.137Z,49.50
2023-04-05T15:33:52.923Z,49.90
2023-04-05T15:36:27.492Z,47.30
2023-04-05T15:38:54.174Z,46.00
2023-04-05T15:41:20.918Z,46.80
2023-04-05T15:43:47.865Z,49.10
2023-04-05T15:46:14.907Z,49.30
2023-04-05T15:48:43.047Z,49.20
2023-04-05T15:51:11.335Z,49.50
2023-04-05T15:53:41.132Z,49.50
2023-04-05T15:56:07.796Z,50.40
2023-04-05T15:58:36.363Z,49.70
2023-04-05T16:01:03.699Z,50.30
2023-04-05T16:03:35.963Z,50.60
2023-04-05T16:06:09.219Z,50.30
2023-04-05T16:08:35.967Z,51.10
2023-04-05T16:11:07.787Z,50.40
2023-04-05T16:13:35.254Z,50.60
2023-04-05T16:16:02.641Z,49.90
2023-04-05T16:18:30.942Z,50.60
2023-04-05T16:20:57.751Z,52.40
2023-04-05T16:23:24.761Z,52.00
2023-04-05T16:25:51.481Z,51.30
2023-04-05T16:28:22.848Z,51.30
2023-04-05T16:30:51.353Z,53.40
2023-04-05T16:33:19.195Z,53.40
2023-04-05T16:35:48.328Z,51.90
2023-04-05T16:38:15.499Z,50.80
2023-04-05T16:40:44.602Z,52.60
2023-04-05T16:43:11.358Z,52.50
2023-04-05T16:45:38.087Z,51.60
2023-04-05T16:48:12.119Z,52.80
2023-04-05T16:50:41.345Z,53.30
2023-04-05T16:53:10.932Z,53.10
2023-04-05T16:55:37.900Z,53.10
2023-04-05T16:58:10.344Z,54.10
2023-04-05T17:00:37.196Z,53.00
2023-04-05T17:03:03.978Z,54.10
2023-04-05T17:05:34.052Z,53.80
2023-04-05T17:08:00.816Z,53.70
2023-04-05T17:10:28.001Z,54.90
2023-04-05T17:12:55.437Z,54.60
2023-04-05T17:15:33.643Z,54.60
2023-04-05T17:18:00.995Z,54.90
2023-04-05T17:20:30.419Z,55.40
2023-04-05T17:23:02.472Z,55.30
2023-04-05T17:25:31.749Z,55.60
2023-04-05T17:28:03.401Z,56.20
2023-04-05T17:30:35.242Z,56.70
2023-04-05T17:33:04.470Z,57.40
2023-04-05T17:35:33.416Z,57.70
2023-04-05T17:38:02.552Z,57.30
2023-04-05T17:40:30.843Z,58.40
2023-04-05T17:43:00.541Z,58.20
2023-04-05T17:45:29.960Z,58.70
2023-04-05T17:48:00.380Z,59.20
2023-04-05T17:50:27.456Z,59.80
2023-04-05T17:53:00.828Z,60.00
2023-04-05T17:55:33.318Z,60.60
2023-04-05T17:58:00.307Z,60.90
2023-04-05T18:00:27.059Z,61.20
2023-04-05T18:02:58.383Z,61.60
2023-04-05T18:05:26.508Z,62.00
2023-04-05T18:07:53.198Z,62.30
2023-04-05T18:10:29.915Z,62.50
2023-04-05T18:12:56.914Z,64.30
2023-04-05T18:15:23.946Z,67.40
2023-04-05T18:17:56.312Z,68.20
2023-04-05T18:20:24.212Z,69.10
2023-04-05T18:23:00.486Z,70.30
2023-04-05T18:28:24.161Z,72.80
2023-04-05T18:30:54.819Z,75.20
2023-04-05T18:33:21.845Z,78.40
2023-04-05T18:35:54.220Z,79.90
2023-04-05T18:38:21.171Z,80.80
2023-04-05T18:40:48.046Z,82.20
2023-04-05T18:43:15.081Z,82.80
2023-04-05T18:45:42.227Z,82.40
2023-04-05T18:48:09.835Z,83.10
2023-04-05T18:50:36.871Z,83.40
2023-04-05T18:53:06.036Z,84.90
2023-04-05T18:55:35.011Z,85.60
2023-04-05T18:58:08.439Z,86.60
2023-04-05T19:00:35.425Z,87.80
2023-04-05T19:03:03.405Z,88.30
2023-04-05T19:05:35.497Z,89.10
2023-04-05T19:08:03.786Z,90.00
2023-04-05T19:10:33.427Z,90.20
2023-04-05T19:13:02.446Z,90.90
2023-04-05T19:15:29.902Z,91.60
2023-04-05T19:17:57.436Z,92.10
2023-04-05T19:20:27.488Z,92.90
2023-04-05T19:22:54.216Z,92.80
2023-04-05T19:25:23.411Z,95.00
2023-04-05T19:27:58.076Z,95.40
2023-04-05T19:33:26.401Z,99.00
2023-04-05T19:35:53.565Z,99.10
2023-04-05T19:38:30.560Z,98.10
2023-04-05T19:40:59.748Z,99.90
2023-04-05T19:43:30.747Z,99.90
2023-04-05T19:45:59.891Z,99.90
2023-04-05T19:48:35.907Z,99.90
2023-04-05T19:51:05.337Z,99.90
2023-04-05T19:53:40.420Z,99.90
2023-04-05T19:56:16.428Z,99.90
2023-04-05T19:59:01.782Z,99.90
2023-04-05T20:01:39.107Z,99.90
2023-04-05T20:04:18.785Z,99.90
2023-04-05T20:06:56.653Z,99.90
2023-04-05T20:09:29.170Z,99.90
2023-04-05T20:12:02.878Z,99.90
2023-04-05T20:14:48.082Z,99.90
2023-04-05T20:17:16.748Z,99.90
2023-04-05T20:20:00.897Z,99.90
2023-04-05T20:22:28.572Z,99.90
2023-04-05T20:24:58.502Z,99.90
2023-04-05T20:27:26.648Z,99.90
2023-04-05T20:29:56.538Z,99.90
2023-04-05T20:32:27.510Z,99.90
2023-04-05T20:34:58.560Z,99.90
2023-04-05T20:37:27.502Z,99.90
2023-04-05T20:39:54.182Z,99.90
2023-04-05T20:42:21.502Z,99.90
2023-04-05T20:45:54.960Z,99.90
2023-04-05T20:48:26.496Z,99.90
2023-04-05T20:50:53.583Z,99.90
2023-04-05T20:53:30.643Z,99.90
2023-04-05T20:58:53.939Z,99.90
2023-04-05T21:04:29.392Z,99.90
2023-04-05T21:06:57.460Z,99.90
2023-04-05T21:09:25.247Z,99.90
2023-04-05T21:11:55.555Z,99.90
2023-04-05T21:14:27.371Z,99.90
2023-04-05T21:16:56.888Z,99.90
2023-04-05T21:19:23.628Z,99.90
2023-04-05T21:21:53.505Z,99.90
2023-04-05T21:24:21.621Z,99.90
2023-04-05T21:29:45.566Z,99.90
2023-04-05T21:32:12.426Z,99.90
2023-04-05T21:34:39.190Z,99.90
2023-04-05T21:37:06.121Z,99.90
2023-04-05T21:39:32.808Z,99.90
2023-04-05T21:42:05.598Z,99.90
2023-04-05T21:44:32.329Z,99.90
2023-04-05T21:47:04.549Z,99.90
2023-04-05T21:49:33.563Z,99.90
2023-04-05T21:52:00.130Z,99.90
2023-04-05T21:54:36.691Z,99.90
2023-04-05T21:57:06.785Z,99.90
2023-04-05T22:05:10.596Z,99.90
2023-04-05T22:07:53.612Z,99.90
2023-04-05T22:10:24.073Z,99.90
2023-04-05T22:12:51.025Z,99.90
2023-04-05T22:15:20.066Z,99.90
2023-04-05T22:17:51.259Z,99.90
2023-04-05T22:20:18.155Z,99.90
2023-04-05T22:22:47.327Z,99.90
2023-04-05T22:25:14.252Z,99.90
2023-04-05T22:30:44.206Z,99.90
2023-04-05T22:33:14.466Z,99.90
2023-04-05T22:36:36.613Z,99.90
2023-04-05T22:39:05.951Z,99.90
2023-04-05T22:41:36.017Z,99.90
2023-04-05T22:44:06.295Z,99.90
2023-04-05T22:46:37.069Z,99.90
2023-04-05T22:49:03.849Z,99.90
2023-04-05T22:51:30.944Z,99.90
2023-04-05T22:53:58.883Z,99.90
2023-04-05T22:56:28.790Z,99.90
2023-04-05T22:58:55.826Z,99.90
2023-04-05T23:01:25.077Z,99.90
2023-04-05T23:03:54.312Z,99.90
2023-04-05T23:06:23.081Z,99.90
2023-04-05T23:08:51.773Z,99.90
2023-04-05T23:11:18.537Z,99.90
2023-04-05T23:13:48.669Z,99.90
2023-04-05T23:16:17.138Z,99.90
2023-04-05T23:18:50.618Z,99.90
2023-04-05T23:21:20.689Z,99.90
2023-04-05T23:23:47.502Z,99.90
2023-04-05T23:26:17.797Z,99.90
2023-04-05T23:28:45.678Z,99.90
2023-04-05T23:31:12.652Z,99.90
2023-04-05T23:33:39.563Z,99.90
2023-04-05T23:36:07.153Z,99.90
2023-04-05T23:38:34.168Z,99.90
2023-04-05T23:41:06.819Z,99.90
2023-04-05T23:43:34.102Z,99.90
2023-04-05T23:46:01.071Z,99.90
2023-04-05T23:48:32.713Z,99.90
2023-04-05T23:50:59.597Z,99.90
2023-04-05T23:53:32.792Z,99.90
2023-04-05T23:56:02.223Z,99.90
2023-04-05T23:58:32.835Z,99.90
